Time;durP1;ratioP1;P1;durP2;ratioP2;P2;SDS_P1;SDS_P2;PMS_P1;PMS_P2;Temp;Humidity;BMP_temperature;BMP_pressure;BME280_temperature;BME280_humidity;BME280_pressure;Samples;Min_cycle;Max_cycle;Signal;HPM_P1;HPM_P2
2022/07/03 00:02:21;;;;;;;11.60;8.02;;;;;;;15.52;89.95;101636.53;5026410;28;20044;-68
2022/07/03 00:04:47;;;;;;;10.80;7.55;;;;;;;15.50;90.36;101632.31;5026284;28;20013;-69
2022/07/03 00:07:12;;;;;;;9.82;7.82;;;;;;;15.47;90.24;101641.97;5025174;28;20087;-69
2022/07/03 00:09:38;;;;;;;14.43;9.00;;;;;;;15.43;90.38;101646.31;5025599;28;20442;-69
2022/07/03 00:12:04;;;;;;;12.60;9.07;;;;;;;15.36;90.72;101648.38;5022605;28;20037;-69
2022/07/03 00:14:29;;;;;;;14.00;10.40;;;;;;;15.32;91.02;101649.94;5025272;28;20041;-69
2022/07/03 00:16:55;;;;;;;15.07;11.13;;;;;;;15.29;91.15;101647.66;5024528;28;20084;-69
2022/07/03 00:19:21;;;;;;;13.55;10.77;;;;;;;15.25;90.77;101649.19;5025126;28;20021;-69
2022/07/03 00:22:00;;;;;;;10.48;8.73;;;;;;;15.31;90.96;101651.88;5023328;28;20040;-69
2022/07/03 00:24:26;;;;;;;12.68;9.13;;;;;;;15.29;90.66;101656.78;5009396;28;20032;-69
2022/07/03 00:26:53;;;;;;;14.97;10.20;;;;;;;15.29;90.71;101670.63;5025574;28;20394;-63
2022/07/03 00:29:21;;;;;;;16.60;13.38;;;;;;;15.24;90.62;101681.56;5026130;28;20268;-70
2022/07/03 00:31:47;;;;;;;19.50;17.50;;;;;;;15.29;90.59;101669.78;5024279;28;20030;-70
2022/07/03 00:34:15;;;;;;;20.77;15.82;;;;;;;15.38;88.68;101673.88;5024885;28;20021;-70
2022/07/03 00:36:41;;;;;;;17.65;15.82;;;;;;;15.43;88.66;101681.44;5025393;28;20608;-69
2022/07/03 00:39:07;;;;;;;20.70;15.60;;;;;;;15.48;87.76;101687.09;5024641;28;20037;-70
2022/07/03 00:41:34;;;;;;;21.98;15.98;;;;;;;15.51;87.48;101679.16;5024298;28;20394;-69
2022/07/03 00:44:00;;;;;;;19.05;15.18;;;;;;;15.57;87.04;101680.94;5025332;28;20029;-69
2022/07/03 00:46:27;;;;;;;18.77;15.55;;;;;;;15.60;86.90;101676.00;5024451;28;20033;-69
2022/07/03 00:48:54;;;;;;;18.20;15.70;;;;;;;15.58;87.10;101673.47;5025245;28;20022;-70
2022/07/03 00:51:25;;;;;;;19.40;16.90;;;;;;;15.60;86.68;101667.69;5024310;28;20038;-69
2022/07/03 00:53:53;;;;;;;21.38;15.80;;;;;;;15.55;86.68;101668.41;5026072;28;20026;-69
2022/07/03 00:56:23;;;;;;;21.73;18.43;;;;;;;15.56;86.64;101667.31;5024924;28;20060;-69
2022/07/03 00:58:52;;;;;;;20.50;18.13;;;;;;;15.51;87.12;101673.63;5022970;28;20036;-70
2022/07/03 01:01:18;;;;;;;21.02;18.55;;;;;;;15.50;88.21;101671.06;5023960;28;20390;-69
2022/07/03 01:03:45;;;;;;;22.98;18.35;;;;;;;15.47;87.61;101671.59;5025518;28;20029;-69
2022/07/03 01:06:14;;;;;;;23.15;19.20;;;;;;;15.45;87.71;101668.19;5023720;28;20037;-69
2022/07/03 01:08:51;;;;;;;27.45;19.90;;;;;;;15.45;87.47;101665.44;5025571;28;20388;-69
2022/07/03 01:11:31;;;;;;;23.98;21.42;;;;;;;15.43;86.92;101665.69;5023751;28;20079;-69
2022/07/03 01:14:24;;;;;;;24.67;20.95;;;;;;;15.44;87.21;101669.28;5024343;28;20510;-69
2022/07/03 01:17:11;;;;;;;27.50;22.23;;;;;;;15.42;87.49;101677.00;5010209;28;20045;-69
2022/07/03 01:19:42;;;;;;;28.77;22.93;;;;;;;15.32;87.63;101672.06;5023768;28;20022;-69
2022/07/03 01:22:37;;;;;;;32.13;23.98;;;;;;;15.35;87.72;101670.75;5022014;28;20045;-69
2022/07/03 01:25:16;;;;;;;32.67;24.58;;;;;;;15.29;87.49;101669.78;5024365;28;20505;-69
2022/07/03 01:28:00;;;;;;;31.80;25.63;;;;;;;15.26;88.17;101673.06;5025293;28;20025;-68
2022/07/03 01:30:29;;;;;;;32.15;25.13;;;;;;;15.18;87.86;101671.47;5023889;28;20040;-69
2022/07/03 01:32:59;;;;;;;30.45;24.80;;;;;;;15.17;87.93;101672.56;5024307;28;20025;-70
2022/07/03 01:35:33;;;;;;;33.47;26.27;;;;;;;15.15;88.01;101673.88;5023963;28;20046;-69
2022/07/03 01:38:03;;;;;;;31.80;25.27;;;;;;;15.10;88.05;101669.06;5025108;28;20057;-69
2022/07/03 01:40:29;;;;;;;33.60;25.73;;;;;;;15.13;88.16;101674.13;5024172;28;20025;-69
2022/07/03 01:42:56;;;;;;;31.55;26.23;;;;;;;15.12;88.21;101668.84;5018725;28;20370;-69
2022/07/03 01:45:23;;;;;;;35.05;25.42;;;;;;;15.14;87.60;101672.19;5014910;28;20044;-69
2022/07/03 01:47:50;;;;;;;32.30;24.30;;;;;;;15.12;87.59;101666.91;5025228;28;20036;-69
2022/07/03 01:50:16;;;;;;;35.75;25.13;;;;;;;15.13;87.06;101673.28;5024074;28;20030;-70
2022/07/03 01:52:42;;;;;;;29.65;23.58;;;;;;;15.12;86.75;101671.63;5025448;28;20114;-69
2022/07/03 01:55:09;;;;;;;33.28;23.08;;;;;;;15.09;86.87;101669.31;5024726;28;20030;-69
2022/07/03 01:57:48;;;;;;;31.48;23.23;;;;;;;15.03;86.99;101666.44;5023794;28;20038;-69
2022/07/03 02:00:17;;;;;;;33.90;23.58;;;;;;;14.98;87.18;101668.22;5027320;28;20092;-69
2022/07/03 02:02:52;;;;;;;28.42;21.15;;;;;;;14.89;88.09;101667.75;5028484;28;20030;-69
2022/07/03 02:05:38;;;;;;;29.50;21.17;;;;;;;14.92;87.88;101670.03;5026846;28;20025;-69
2022/07/03 02:08:35;;;;;;;31.48;21.35;;;;;;;14.89;87.46;101662.22;5028269;28;20376;-69
2022/07/03 02:11:19;;;;;;;28.08;20.50;;;;;;;14.83;87.98;101660.41;5027821;28;20057;-69
2022/07/03 02:14:14;;;;;;;28.85;20.58;;;;;;;14.76;87.80;101660.53;5029136;28;20088;-69
2022/07/03 02:17:09;;;;;;;30.55;19.88;;;;;;;14.79;87.65;101657.25;5026654;28;20441;-69
2022/07/03 02:19:52;;;;;;;26.10;19.50;;;;;;;14.74;88.16;101656.31;5028107;28;20032;-68
2022/07/03 02:22:20;;;;;;;26.52;20.05;;;;;;;14.69;88.11;101647.88;5027213;28;20037;-69
2022/07/03 02:24:46;;;;;;;25.88;18.35;;;;;;;14.59;89.26;101642.94;5028527;28;20029;-69
2022/07/03 02:27:21;;;;;;;26.23;19.25;;;;;;;14.56;89.00;101651.72;5027959;28;20090;-69
2022/07/03 02:29:54;;;;;;;26.70;18.55;;;;;;;14.42;89.17;101658.50;5027029;28;20030;-69
2022/07/03 02:32:22;;;;;;;29.27;19.38;;;;;;;14.36;89.54;101662.22;5024677;28;20025;-70
2022/07/03 02:35:01;;;;;;;24.60;17.63;;;;;;;14.31;89.47;101668.44;5028566;28;20022;-69
2022/07/03 02:37:30;;;;;;;26.10;17.20;;;;;;;14.24;89.43;101656.63;5028388;28;20480;-69
2022/07/03 02:40:09;;;;;;;27.55;18.23;;;;;;;14.25;89.81;101652.81;5027982;28;20053;-69
2022/07/03 02:42:42;;;;;;;23.88;17.30;;;;;;;14.16;89.95;101655.06;5025087;28;20037;-69
2022/07/03 02:45:09;;;;;;;24.55;17.50;;;;;;;14.15;90.84;101663.59;5027814;28;20503;-70
2022/07/03 02:47:43;;;;;;;25.38;18.38;;;;;;;14.16;90.61;101659.75;5027466;28;20044;-69
2022/07/03 02:50:12;;;;;;;28.67;19.00;;;;;;;14.14;90.04;101665.53;5010622;28;20030;-67
2022/07/03 02:52:49;;;;;;;25.85;18.80;;;;;;;14.15;91.15;101660.84;5015011;28;20029;-69
2022/07/03 02:55:46;;;;;;;26.95;18.58;;;;;;;14.14;90.40;101660.00;5027417;28;20116;-70
2022/07/03 02:58:39;;;;;;;28.33;19.27;;;;;;;14.10;90.62;101661.53;5027470;28;20041;-69
2022/07/03 03:01:04;;;;;;;24.38;18.13;;;;;;;14.02;91.27;101654.41;5026368;28;20864;-69
2022/07/03 03:03:32;;;;;;;22.63;17.80;;;;;;;13.99;91.43;101652.13;5025055;28;20112;-69
2022/07/03 03:06:03;;;;;;;26.85;19.95;;;;;;;13.94;91.62;101654.75;5026465;28;20026;-70
2022/07/03 03:08:48;;;;;;;26.58;17.17;;;;;;;13.87;91.77;101653.97;5027812;28;20600;-69
2022/07/03 03:11:28;;;;;;;23.02;17.73;;;;;;;13.76;91.70;101652.00;5026922;28;20044;-68
2022/07/03 03:13:57;;;;;;;25.77;17.55;;;;;;;13.70;92.52;101653.78;5024910;28;20049;-69
2022/07/03 03:16:22;;;;;;;30.13;18.30;;;;;;;13.68;92.29;101658.66;5026842;28;20378;-69
2022/07/03 03:18:48;;;;;;;25.70;18.08;;;;;;;13.69;92.96;101667.81;5027064;28;20090;-69
2022/07/03 03:21:16;;;;;;;24.75;18.85;;;;;;;13.71;93.02;101662.91;5026073;28;20143;-69
2022/07/03 03:23:50;;;;;;;23.90;18.33;;;;;;;13.69;92.74;101656.78;5027389;28;20044;-69
2022/07/03 03:26:28;;;;;;;24.42;19.67;;;;;;;13.72;93.26;101659.06;5026565;28;20076;-69
2022/07/03 03:28:54;;;;;;;27.23;19.47;;;;;;;13.74;92.90;101670.72;5024335;28;20025;-69
2022/07/03 03:31:20;;;;;;;26.25;19.70;;;;;;;13.71;92.41;101669.25;5025358;28;20079;-70
2022/07/03 03:33:47;;;;;;;26.67;19.25;;;;;;;13.73;92.82;101672.63;5027338;28;20038;-64
2022/07/03 03:36:16;;;;;;;24.87;18.23;;;;;;;13.72;92.20;101670.09;5025917;28;20036;-69
2022/07/03 03:38:42;;;;;;;26.25;19.60;;;;;;;13.74;92.43;101662.44;5026209;28;20292;-69
2022/07/03 03:41:08;;;;;;;28.02;18.38;;;;;;;13.82;92.18;101666.78;5026037;28;20087;-69
2022/07/03 03:43:34;;;;;;;24.15;17.60;;;;;;;13.79;92.43;101670.88;5026080;28;20064;-69
2022/07/03 03:46:01;;;;;;;26.92;18.35;;;;;;;13.79;93.30;101658.97;5024686;28;20037;-69
2022/07/03 03:48:27;;;;;;;26.65;17.30;;;;;;;13.73;92.75;101671.78;5027012;28;20041;-69
2022/07/03 03:50:52;;;;;;;22.10;16.85;;;;;;;13.77;93.41;101684.06;5023230;28;20068;-69
2022/07/03 03:53:19;;;;;;;26.80;17.05;;;;;;;13.83;93.99;101677.59;5015716;28;20025;-70
2022/07/03 03:56:04;;;;;;;27.23;17.00;;;;;;;13.91;93.35;101669.00;5011056;28;20088;-69
2022/07/03 03:58:32;;;;;;;23.05;16.85;;;;;;;14.00;93.38;101672.31;5025808;28;20040;-69
2022/07/03 04:00:59;;;;;;;22.38;17.13;;;;;;;14.02;93.20;101667.38;5024585;28;20029;-69
2022/07/03 04:03:26;;;;;;;22.40;16.85;;;;;;;13.98;93.16;101674.44;5026664;28;20033;-69
2022/07/03 04:05:52;;;;;;;26.52;17.08;;;;;;;13.99;93.49;101659.56;5024410;28;20023;-66
2022/07/03 04:08:18;;;;;;;23.10;16.23;;;;;;;13.98;93.70;101663.38;5025449;28;20053;-69
2022/07/03 04:10:44;;;;;;;22.30;16.02;;;;;;;13.99;93.66;101665.94;5025270;28;20104;-69
2022/07/03 04:13:09;;;;;;;22.90;15.65;;;;;;;14.02;93.72;101668.22;5020985;28;20120;-69
2022/07/03 04:15:34;;;;;;;22.20;15.38;;;;;;;14.01;92.83;101665.69;5011336;28;20029;-69
2022/07/03 04:17:59;;;;;;;24.63;15.65;;;;;;;14.03;93.42;101663.53;5013649;28;20435;-69
2022/07/03 04:20:25;;;;;;;25.27;15.45;;;;;;;14.07;93.70;101661.16;5023726;28;20112;-68
2022/07/03 04:22:50;;;;;;;19.10;14.38;;;;;;;14.14;92.65;101667.41;5025472;28;20051;-69
2022/07/03 04:25:17;;;;;;;22.45;14.20;;;;;;;14.17;92.47;101673.31;5025836;28;20024;-70
2022/07/03 04:27:42;;;;;;;23.42;13.63;;;;;;;14.22;92.29;101676.22;5025724;28;20064;-69
2022/07/03 04:30:10;;;;;;;20.58;14.57;;;;;;;14.23;91.59;101675.13;5023205;28;20869;-69
2022/07/03 04:32:36;;;;;;;24.65;16.23;;;;;;;14.22;91.83;101669.84;5009948;28;20037;-69
2022/07/03 04:35:01;;;;;;;22.30;14.60;;;;;;;14.23;92.04;101675.13;5024628;28;20026;-69
2022/07/03 04:37:26;;;;;;;24.90;14.93;;;;;;;14.25;91.71;101680.44;5025995;28;20144;-69
2022/07/03 04:39:52;;;;;;;23.77;14.52;;;;;;;14.30;91.64;101685.28;5023457;28;20036;-69
2022/07/03 04:42:17;;;;;;;23.63;14.50;;;;;;;14.32;90.86;101689.47;5023435;28;20060;-69
2022/07/03 04:44:42;;;;;;;22.40;15.35;;;;;;;14.40;90.74;101685.53;5025445;28;20029;-70
2022/07/03 04:47:07;;;;;;;23.70;15.57;;;;;;;14.54;89.41;101684.28;5023867;28;20700;-69
2022/07/03 04:49:33;;;;;;;21.65;15.35;;;;;;;14.66;88.95;101693.44;5024206;28;20049;-69
2022/07/03 04:51:58;;;;;;;26.48;15.60;;;;;;;14.82;88.25;101691.91;5024373;28;20034;-70
2022/07/03 04:54:23;;;;;;;22.73;15.48;;;;;;;14.94;88.83;101692.75;5025059;28;20029;-72
2022/07/03 04:56:49;;;;;;;26.05;14.88;;;;;;;15.02;86.49;101691.56;5025203;28;20037;-69
2022/07/03 04:59:14;;;;;;;21.63;15.15;;;;;;;15.02;86.58;101686.88;5024709;28;20539;-70
2022/07/03 05:01:39;;;;;;;22.20;14.75;;;;;;;15.07;87.50;101699.16;5022894;28;20040;-70
2022/07/03 05:04:04;;;;;;;21.67;13.45;;;;;;;15.06;85.89;101690.03;5023547;28;20770;-69
2022/07/03 05:06:30;;;;;;;21.60;13.93;;;;;;;15.05;85.51;101694.72;5024601;28;20048;-70
2022/07/03 05:08:55;;;;;;;21.88;13.85;;;;;;;15.07;85.41;101697.22;5024271;28;20129;-69
2022/07/03 05:11:20;;;;;;;18.17;12.57;;;;;;;15.10;84.81;101693.97;5025653;28;20017;-70
2022/07/03 05:13:46;;;;;;;20.50;12.90;;;;;;;15.04;85.94;101693.00;5020474;28;20049;-69
2022/07/03 05:16:11;;;;;;;22.30;12.50;;;;;;;15.02;86.16;101697.94;5025075;28;20033;-70
2022/07/03 05:18:36;;;;;;;18.42;13.02;;;;;;;15.01;86.39;101696.28;5024295;28;20116;-71
2022/07/03 05:21:02;;;;;;;20.30;11.98;;;;;;;15.06;85.78;101701.09;5024106;28;20054;-69
2022/07/03 05:23:27;;;;;;;23.13;13.73;;;;;;;15.06;85.36;101703.84;5024721;28;20025;-69
2022/07/03 05:25:53;;;;;;;20.05;13.05;;;;;;;15.10;84.75;101701.44;5023240;28;20029;-70
2022/07/03 05:28:18;;;;;;;20.27;13.10;;;;;;;15.12;84.41;101704.81;5024610;28;20362;-69
2022/07/03 05:30:43;;;;;;;21.15;12.75;;;;;;;15.15;84.40;101698.78;5023981;28;20393;-69
2022/07/03 05:33:09;;;;;;;18.70;12.45;;;;;;;15.13;84.42;101707.34;5023015;28;20037;-69
2022/07/03 05:35:34;;;;;;;15.82;12.13;;;;;;;15.16;84.24;101698.56;5027058;28;20586;-69
2022/07/03 05:37:59;;;;;;;22.77;12.18;;;;;;;15.22;84.52;101702.28;5029057;28;20030;-69
2022/07/03 05:40:24;;;;;;;17.90;13.18;;;;;;;15.27;84.21;101707.94;5027388;28;20029;-70
2022/07/03 05:42:50;;;;;;;25.67;12.07;;;;;;;15.45;84.15;101707.78;5028519;28;20040;-69
2022/07/03 05:45:15;;;;;;;20.45;11.98;;;;;;;15.60;83.25;101712.00;5027174;28;20025;-70
2022/07/03 05:47:40;;;;;;;16.02;11.07;;;;;;;15.67;82.08;101708.06;5029439;28;20395;-69
2022/07/03 05:50:06;;;;;;;21.20;12.75;;;;;;;15.66;82.15;101711.91;5027316;28;20026;-70
2022/07/03 05:52:32;;;;;;;21.98;12.27;;;;;;;15.73;82.15;101706.22;5028378;28;20358;-71
2022/07/03 05:54:57;;;;;;;18.60;11.65;;;;;;;15.78;82.94;101706.34;5025143;28;20033;-70
2022/07/03 05:57:23;;;;;;;22.17;12.25;;;;;;;15.82;83.15;101715.84;5027588;28;20449;-69
2022/07/03 05:59:48;;;;;;;19.85;12.15;;;;;;;15.94;82.18;101710.28;5026201;28;20033;-70
2022/07/03 06:02:14;;;;;;;22.70;11.07;;;;;;;16.03;83.12;101711.56;5025546;28;20036;-69
2022/07/03 06:04:39;;;;;;;20.77;12.35;;;;;;;16.14;83.16;101715.38;5025239;28;20405;-69
2022/07/03 06:07:04;;;;;;;22.27;11.18;;;;;;;16.27;81.88;101709.53;5028369;28;20042;-70
2022/07/03 06:09:30;;;;;;;22.48;10.95;;;;;;;16.36;82.75;101710.81;5028620;28;20219;-70
2022/07/03 06:11:55;;;;;;;20.25;10.57;;;;;;;16.44;82.71;101704.06;5027228;28;20030;-70
2022/07/03 06:14:20;;;;;;;17.90;10.70;;;;;;;16.56;82.39;101710.38;5026204;28;20450;-70
2022/07/03 06:16:45;;;;;;;18.55;8.57;;;;;;;16.70;80.74;101719.22;5025770;28;20079;-70
2022/07/03 06:19:11;;;;;;;20.48;9.55;;;;;;;16.69;81.30;101721.16;5026435;28;20056;-70
2022/07/03 06:21:36;;;;;;;18.42;9.05;;;;;;;16.69;82.09;101728.63;5009919;28;20040;-70
2022/07/03 06:24:02;;;;;;;21.65;9.88;;;;;;;16.66;81.54;101724.41;5022229;28;20021;-69
2022/07/03 06:26:28;;;;;;;20.23;9.02;;;;;;;16.69;81.15;101729.47;5027158;28;20681;-70
2022/07/03 06:28:54;;;;;;;17.75;9.18;;;;;;;16.68;81.26;101727.78;5023407;28;20017;-70
2022/07/03 06:31:19;;;;;;;18.02;9.90;;;;;;;16.75;81.08;101722.13;5026846;28;20044;-70
2022/07/03 06:33:44;;;;;;;19.83;9.15;;;;;;;16.78;81.05;101718.84;5027195;28;20068;-68
2022/07/03 06:36:10;;;;;;;15.25;9.30;;;;;;;16.81;81.55;101724.72;5026608;28;20610;-70
2022/07/03 06:38:35;;;;;;;16.73;8.15;;;;;;;16.89;81.97;101720.69;5027926;28;20029;-70
2022/07/03 06:41:00;;;;;;;18.05;9.02;;;;;;;16.96;81.58;101724.13;5027265;28;20120;-70
2022/07/03 06:43:26;;;;;;;17.50;8.05;;;;;;;16.99;80.91;101722.81;5028161;28;20055;-70
2022/07/03 06:45:51;;;;;;;15.48;7.55;;;;;;;16.96;81.63;101728.84;5024532;28;20555;-64
2022/07/03 06:48:16;;;;;;;16.65;6.93;;;;;;;16.94;82.02;101723.56;5028642;28;20057;-70
2022/07/03 06:50:42;;;;;;;14.65;7.43;;;;;;;17.05;81.57;101725.41;5025477;28;20434;-69
2022/07/03 06:53:07;;;;;;;16.48;7.82;;;;;;;17.12;82.55;101717.72;5028418;28;20028;-70
2022/07/03 06:55:32;;;;;;;14.27;6.80;;;;;;;17.22;81.14;101716.22;5028190;28;20025;-70
2022/07/03 06:57:58;;;;;;;17.45;6.88;;;;;;;17.31;81.48;101715.53;5028158;28;20032;-70
2022/07/03 07:00:23;;;;;;;13.15;6.05;;;;;;;17.37;81.77;101722.84;5024973;28;20104;-70
2022/07/03 07:02:48;;;;;;;14.02;5.47;;;;;;;17.44;81.19;101721.84;5023718;28;20119;-71
2022/07/03 07:05:14;;;;;;;15.20;5.28;;;;;;;17.42;80.12;101727.63;5024353;28;20057;-70
2022/07/03 07:07:39;;;;;;;14.48;6.43;;;;;;;17.48;80.15;101732.16;5026678;28;20099;-71
2022/07/03 07:10:05;;;;;;;12.10;4.70;;;;;;;17.58;78.96;101728.69;5027675;28;20045;-71
2022/07/03 07:12:30;;;;;;;13.45;4.65;;;;;;;17.66;77.75;101719.09;5028131;28;20433;-71
2022/07/03 07:14:55;;;;;;;8.80;3.95;;;;;;;17.73;76.69;101722.53;5025123;28;20504;-71
2022/07/03 07:17:21;;;;;;;8.98;4.25;;;;;;;17.83;76.50;101715.19;5026210;28;20083;-71
2022/07/03 07:19:46;;;;;;;9.40;4.10;;;;;;;17.97;76.43;101721.19;5023179;28;20478;-71
2022/07/03 07:22:11;;;;;;;10.00;3.88;;;;;;;18.06;76.60;101724.38;5026804;28;20037;-71
2022/07/03 07:24:37;;;;;;;11.60;4.00;;;;;;;18.05;75.20;101722.69;5027466;28;20021;-71
2022/07/03 07:27:02;;;;;;;11.70;4.43;;;;;;;18.06;75.02;101718.81;5027156;28;20032;-71
2022/07/03 07:29:27;;;;;;;12.93;4.05;;;;;;;18.12;75.67;101720.56;5024544;28;20026;-71
2022/07/03 07:31:53;;;;;;;8.73;3.75;;;;;;;18.11;76.54;101725.28;5017772;28;20029;-70
2022/07/03 07:34:18;;;;;;;10.82;3.83;;;;;;;18.19;74.79;101729.53;5026524;28;20025;-70
2022/07/03 07:36:44;;;;;;;9.50;3.67;;;;;;;18.31;74.32;101740.53;5027700;28;20100;-71
2022/07/03 07:39:09;;;;;;;10.10;4.00;;;;;;;18.37;74.05;101737.53;5026962;28;20108;-71
2022/07/03 07:41:35;;;;;;;11.05;3.90;;;;;;;18.44;73.20;101737.31;5025937;28;20033;-78
2022/07/03 07:44:01;;;;;;;10.55;3.67;;;;;;;18.49;73.74;101744.88;5024108;28;20029;-72
2022/07/03 07:46:26;;;;;;;9.57;4.28;;;;;;;18.58;73.09;101735.78;5026653;28;20033;-71
2022/07/03 07:48:51;;;;;;;9.00;4.07;;;;;;;18.58;71.79;101744.16;5026980;28;20029;-69
2022/07/03 07:51:17;;;;;;;11.73;4.75;;;;;;;18.67;73.77;101739.78;5025988;28;20026;-71
2022/07/03 07:53:42;;;;;;;11.45;4.47;;;;;;;18.73;71.86;101745.44;5025043;28;20063;-71
2022/07/03 07:56:07;;;;;;;12.82;3.65;;;;;;;18.82;71.94;101735.50;5026719;28;20404;-72
2022/07/03 07:58:33;;;;;;;10.20;3.13;;;;;;;18.92;70.20;101744.78;5026733;28;20025;-71
2022/07/03 08:06:26;;;;;;;10.15;5.40;;;;;;;19.01;70.04;101730.38;5026139;28;20179;-70
2022/07/03 08:08:51;;;;;;;8.45;3.45;;;;;;;19.00;67.73;101748.19;5023208;28;20108;-64
2022/07/03 08:11:16;;;;;;;7.95;3.58;;;;;;;19.03;68.01;101739.31;5025977;28;20115;-70
2022/07/03 08:13:42;;;;;;;11.07;3.20;;;;;;;19.08;69.83;101751.31;5025066;28;20057;-70
2022/07/03 08:16:07;;;;;;;10.70;4.00;;;;;;;19.12;68.87;101751.66;5024702;28;20468;-70
2022/07/03 08:18:32;;;;;;;10.95;4.05;;;;;;;19.15;68.55;101751.09;5025159;28;20037;-71
2022/07/03 08:20:57;;;;;;;10.80;3.60;;;;;;;19.26;69.58;101752.00;5024575;28;20470;-70
2022/07/03 08:23:23;;;;;;;10.07;4.90;;;;;;;19.42;68.71;101751.03;5025671;28;20026;-70
2022/07/03 08:25:48;;;;;;;11.90;4.35;;;;;;;19.44;67.48;101746.84;5025488;28;20501;-70
2022/07/03 08:28:13;;;;;;;10.77;5.13;;;;;;;19.54;68.92;101753.63;5024987;28;20100;-70
2022/07/03 08:30:38;;;;;;;12.17;5.70;;;;;;;19.66;68.20;101749.53;5025061;28;20779;-70
2022/07/03 08:33:04;;;;;;;11.48;5.90;;;;;;;19.72;69.18;101744.84;5024825;28;20290;-71
2022/07/03 08:35:29;;;;;;;11.55;5.10;;;;;;;19.94;69.91;101753.03;5024726;28;20029;-71
2022/07/03 08:37:55;;;;;;;13.15;5.47;;;;;;;20.04;67.10;101746.69;5024600;28;20083;-70
2022/07/03 08:40:21;;;;;;;11.30;5.13;;;;;;;20.13;66.43;101745.88;5024174;28;20498;-71
2022/07/03 08:42:57;;;;;;;10.45;4.47;;;;;;;20.30;67.65;101747.59;5025246;28;20029;-70
2022/07/03 08:45:23;;;;;;;8.55;3.35;;;;;;;20.36;65.57;101749.28;5025173;28;20036;-70
2022/07/03 08:47:50;;;;;;;10.60;4.00;;;;;;;20.30;66.29;101745.66;5024567;28;20041;-70
2022/07/03 08:50:18;;;;;;;7.60;3.88;;;;;;;20.29;64.51;101740.34;5022288;28;20026;-70
2022/07/03 08:52:44;;;;;;;8.95;4.40;;;;;;;20.25;65.13;101742.00;5007838;28;20030;-69
2022/07/03 08:55:11;;;;;;;13.13;4.32;;;;;;;20.41;67.74;101752.09;5021519;28;20405;-70
2022/07/03 08:57:37;;;;;;;10.85;4.38;;;;;;;20.52;66.39;101733.44;5024444;28;20028;-71
2022/07/03 09:00:10;;;;;;;9.15;4.68;;;;;;;20.54;65.22;101736.81;5024319;28;20029;-71
2022/07/03 09:02:40;;;;;;;10.13;4.78;;;;;;;20.58;63.98;101741.59;5025088;28;20029;-70
2022/07/03 09:05:07;;;;;;;8.73;4.43;;;;;;;20.63;63.87;101744.38;5023899;28;20049;-71
2022/07/03 09:07:37;;;;;;;9.80;5.00;;;;;;;20.65;64.45;101735.72;5024916;28;20138;-70
2022/07/03 09:10:07;;;;;;;10.27;3.63;;;;;;;20.84;62.51;101733.25;5030303;28;20030;-70
2022/07/03 09:12:33;;;;;;;7.05;2.70;;;;;;;20.91;59.81;101733.78;5030568;28;20744;-70
2022/07/03 09:14:59;;;;;;;5.90;2.63;;;;;;;20.97;60.38;101730.72;5030736;28;20046;-71
2022/07/03 09:17:25;;;;;;;12.18;3.60;;;;;;;21.11;59.92;101730.16;5031883;28;20033;-70
2022/07/03 09:19:50;;;;;;;9.27;3.08;;;;;;;21.11;57.95;101731.00;5030484;28;20031;-70
2022/07/03 09:22:22;;;;;;;8.02;3.10;;;;;;;21.12;59.93;101734.63;5030484;28;20116;-64
2022/07/03 09:24:52;;;;;;;7.63;4.07;;;;;;;21.21;59.98;101738.53;5031964;28;20458;-69
2022/07/03 09:27:20;;;;;;;8.43;4.30;;;;;;;21.35;59.46;101736.06;5031490;28;20021;-69
2022/07/03 09:29:59;;;;;;;10.02;4.47;;;;;;;21.82;59.36;101732.84;5031508;28;20029;-69
2022/07/03 09:32:25;;;;;;;11.73;4.70;;;;;;;22.10;57.03;101734.16;5031014;28;20497;-70
2022/07/03 09:35:25;;;;;;;11.35;5.15;;;;;;;22.52;57.68;101735.63;5030615;28;20224;-69
2022/07/03 09:37:58;;;;;;;11.57;4.22;;;;;;;24.78;51.89;101742.19;5030139;28;20210;-70
2022/07/03 09:40:46;;;;;;;9.25;4.40;;;;;;;25.34;47.51;101754.50;5031037;28;20057;-69
2022/07/03 09:43:11;;;;;;;9.68;4.20;;;;;;;24.11;49.80;101763.91;5031244;28;20037;-69
2022/07/03 09:45:56;;;;;;;8.38;5.65;;;;;;;24.33;51.95;101757.72;5031295;28;20147;-70
2022/07/03 09:48:33;;;;;;;13.32;5.97;;;;;;;26.45;45.63;101752.63;5030157;28;20022;-69
2022/07/03 09:51:25;;;;;;;10.48;5.95;;;;;;;26.88;45.55;101765.13;5030229;28;20086;-68
2022/07/03 09:53:57;;;;;;;10.20;6.35;;;;;;;26.94;44.20;101762.19;5031405;28;20509;-70
2022/07/03 09:56:33;;;;;;;10.50;6.18;;;;;;;28.62;39.89;101771.69;5031138;28;20051;-69
2022/07/03 09:58:59;;;;;;;10.40;5.82;;;;;;;29.82;37.65;101764.25;5027371;28;20037;-69
2022/07/03 10:01:25;;;;;;;12.15;5.75;;;;;;;30.27;35.83;101757.22;5030151;28;20032;-69
2022/07/03 10:03:51;;;;;;;10.43;5.70;;;;;;;30.65;35.38;101760.78;5029283;28;20030;-70
2022/07/03 10:06:16;;;;;;;9.77;5.82;;;;;;;31.25;36.49;101755.78;5022197;28;20076;-69
2022/07/03 10:08:43;;;;;;;11.90;6.07;;;;;;;31.69;34.21;101759.00;5023474;28;20037;-70
2022/07/03 10:11:09;;;;;;;12.00;6.13;;;;;;;32.07;32.22;101760.69;5019364;28;20684;-70
2022/07/03 10:13:38;;;;;;;10.13;6.00;;;;;;;32.00;33.04;101764.97;5029185;28;20123;-69
2022/07/03 10:16:05;;;;;;;8.65;6.18;;;;;;;32.20;32.77;101760.34;5017369;28;20080;-70
2022/07/03 10:18:34;;;;;;;10.90;6.47;;;;;;;30.58;34.64;101756.84;5028045;28;20075;-70
2022/07/03 10:21:01;;;;;;;11.07;5.55;;;;;;;28.81;38.51;101760.06;5025455;28;20025;-69
2022/07/03 10:23:27;;;;;;;10.30;6.75;;;;;;;28.57;38.40;101761.38;5015036;28;20112;-70
2022/07/03 10:25:53;;;;;;;12.23;6.57;;;;;;;27.14;41.74;101767.34;5016204;28;20191;-70
2022/07/03 10:28:19;;;;;;;15.20;7.40;;;;;;;26.88;44.22;101759.50;5017594;28;20029;-69
2022/07/03 10:30:46;;;;;;;12.02;6.40;;;;;;;27.85;40.52;101762.66;5014284;28;20022;-69
2022/07/03 10:33:12;;;;;;;11.95;5.65;;;;;;;26.81;41.86;101769.53;5013190;28;20061;-69
2022/07/03 10:35:40;;;;;;;10.80;4.97;;;;;;;26.68;42.92;101764.78;5011176;28;20505;-69
2022/07/03 10:38:20;;;;;;;9.38;4.63;;;;;;;27.73;41.98;101767.22;5020454;28;20092;-70
2022/07/03 10:46:40;;;;;;;7.32;3.20;;;;;;;28.07;39.34;101769.38;5020429;28;20048;-69
2022/07/03 10:49:10;;;;;;;6.80;3.33;;;;;;;27.35;41.22;101770.47;5021989;28;20034;-69
2022/07/03 10:51:44;;;;;;;9.10;4.50;;;;;;;26.58;42.82;101771.50;5018672;28;20029;-69
2022/07/03 10:54:21;;;;;;;7.10;3.47;;;;;;;25.65;43.93;101777.31;5019703;28;20060;-70
2022/07/03 10:57:00;;;;;;;10.82;4.00;;;;;;;25.42;44.66;101779.13;5021262;28;20157;-68
2022/07/03 10:59:31;;;;;;;9.45;4.35;;;;;;;25.24;44.75;101777.19;5015621;28;20478;-70
2022/07/03 11:02:31;;;;;;;10.65;4.93;;;;;;;24.94;45.73;101779.34;5017704;28;20030;-69
2022/07/03 11:04:57;;;;;;;8.65;4.18;;;;;;;24.40;45.80;101779.88;5013615;28;20048;-69
2022/07/03 11:07:23;;;;;;;10.48;4.05;;;;;;;24.43;45.78;101782.06;5023236;28;20025;-70
2022/07/03 11:10:13;;;;;;;10.82;3.45;;;;;;;24.37;47.14;101772.03;5011639;28;20046;-71
2022/07/03 11:12:58;;;;;;;8.95;3.03;;;;;;;24.55;46.11;101776.84;5021094;28;20026;-69
2022/07/03 11:15:34;;;;;;;6.85;3.20;;;;;;;24.94;46.56;101759.69;5016354;28;20438;-73
2022/07/03 11:18:08;;;;;;;9.02;4.25;;;;;;;25.10;45.06;101766.75;5020998;28;20030;-72
2022/07/03 11:20:37;;;;;;;7.30;3.58;;;;;;;25.21;44.25;101766.56;5022688;28;20026;-72
2022/07/03 11:23:11;;;;;;;6.88;2.88;;;;;;;25.84;49.49;101757.53;5014082;28;20030;-72
2022/07/03 11:25:40;;;;;;;3.88;2.33;;;;;;;26.38;41.93;101756.69;5013185;28;20034;-72
2022/07/03 11:28:06;;;;;;;7.13;2.78;;;;;;;26.20;42.99;101757.63;5016647;28;20247;-77
2022/07/03 11:30:32;;;;;;;7.07;2.83;;;;;;;25.55;42.71;101755.84;5017256;28;20055;-73
2022/07/03 11:32:59;;;;;;;7.15;2.70;;;;;;;25.04;45.73;101753.03;5016371;28;20481;-71
2022/07/03 11:35:47;;;;;;;9.88;3.80;;;;;;;24.81;46.67;101752.84;5022921;28;20458;-71